Time;durP1;ratioP1;P1;durP2;ratioP2;P2;SDS_P1;SDS_P2;PMS_P1;PMS_P2;Temp;Humidity;BMP_temperature;BMP_pressure;BME280_temperature;BME280_humidity;BME280_pressure;Samples;Min_cycle;Max_cycle;Signal;HPM_P1;HPM_P2
2023/09/30 00:00:38;;;;;;;34.65;14.80;;;;;;;;;;2074529;28;20052;-62
2023/09/30 00:01:38;;;;;;;33.22;15.90;;;;;;;;;;2074952;28;20046;-62
2023/09/30 00:02:39;;;;;;;38.58;16.40;;;;;;;;;;2074683;28;20045;-63
2023/09/30 00:03:40;;;;;;;37.10;15.60;;;;;;;;;;2074085;28;20042;-62
2023/09/30 00:04:41;;;;;;;33.50;13.57;;;;;;;;;;2074422;28;20046;-62
2023/09/30 00:05:42;;;;;;;31.85;15.38;;;;;;;;;;2074666;28;20397;-61
2023/09/30 00:06:42;;;;;;;34.38;14.50;;;;;;;;;;2074386;28;20501;-62
2023/09/30 00:07:43;;;;;;;35.60;16.02;;;;;;;;;;2075040;28;20054;-61
2023/09/30 00:08:45;;;;;;;32.15;14.88;;;;;;;;;;2074743;28;20045;-61
2023/09/30 00:09:46;;;;;;;34.25;15.13;;;;;;;;;;2074142;28;20505;-61
2023/09/30 00:10:47;;;;;;;39.38;15.88;;;;;;;;;;2074733;28;20389;-61
2023/09/30 00:11:48;;;;;;;36.15;14.82;;;;;;;;;;2074592;28;20045;-61
2023/09/30 00:12:49;;;;;;;33.25;14.55;;;;;;;;;;2074242;28;20077;-61
2023/09/30 00:13:50;;;;;;;34.65;16.27;;;;;;;;;;2074583;28;20034;-61
2023/09/30 00:14:50;;;;;;;32.22;14.07;;;;;;;;;;2074226;28;20042;-61
2023/09/30 00:15:51;;;;;;;34.88;15.07;;;;;;;;;;2074846;28;20473;-61
2023/09/30 00:16:52;;;;;;;33.22;14.27;;;;;;;;;;2075056;28;20041;-61
2023/09/30 00:17:52;;;;;;;32.63;14.82;;;;;;;;;;2074708;28;20081;-61
2023/09/30 00:18:54;;;;;;;32.30;14.40;;;;;;;;;;2074566;28;20046;-60
2023/09/30 00:19:54;;;;;;;36.33;15.35;;;;;;;;;;2074581;28;20037;-61
2023/09/30 00:20:55;;;;;;;34.42;16.13;;;;;;;;;;2074125;28;20367;-61
2023/09/30 00:21:56;;;;;;;36.03;17.05;;;;;;;;;;2074675;28;20033;-61
2023/09/30 00:22:57;;;;;;;36.83;15.02;;;;;;;;;;2074042;28;20050;-60
2023/09/30 00:23:58;;;;;;;40.33;16.90;;;;;;;;;;2073875;28;20045;-61
2023/09/30 00:24:59;;;;;;;38.97;17.30;;;;;;;;;;2073096;28;20037;-61
2023/09/30 00:26:00;;;;;;;34.92;15.52;;;;;;;;;;2074446;28;20483;-61
2023/09/30 00:27:01;;;;;;;37.10;16.02;;;;;;;;;;2074478;28;20037;-61
2023/09/30 00:28:02;;;;;;;34.78;15.73;;;;;;;;;;2073994;28;20077;-60
2023/09/30 00:29:05;;;;;;;36.55;15.85;;;;;;;;;;2074346;28;20046;-60
2023/09/30 00:30:06;;;;;;;32.10;14.63;;;;;;;;;;2074335;28;20470;-61
2023/09/30 00:31:09;;;;;;;35.33;15.48;;;;;;;;;;2073955;28;20042;-61
2023/09/30 00:32:10;;;;;;;40.10;16.50;;;;;;;;;;2073992;28;20045;-61
2023/09/30 00:33:11;;;;;;;37.95;15.82;;;;;;;;;;2074589;28;20420;-61
2023/09/30 00:34:12;;;;;;;40.13;17.48;;;;;;;;;;2074588;28;20125;-61
2023/09/30 00:35:13;;;;;;;37.25;15.88;;;;;;;;;;2074157;28;20038;-61
2023/09/30 00:36:14;;;;;;;39.47;16.77;;;;;;;;;;2073845;28;20406;-61
2023/09/30 00:37:15;;;;;;;33.50;15.80;;;;;;;;;;2073875;28;20080;-62
2023/09/30 00:38:16;;;;;;;34.97;16.23;;;;;;;;;;2074207;28;20042;-61
2023/09/30 00:39:17;;;;;;;34.65;16.98;;;;;;;;;;2065651;28;20128;-61
2023/09/30 00:40:17;;;;;;;40.28;17.02;;;;;;;;;;2073253;28;20394;-61
2023/09/30 00:41:18;;;;;;;34.65;15.88;;;;;;;;;;2074442;28;20049;-61
2023/09/30 00:42:20;;;;;;;33.85;15.68;;;;;;;;;;2065969;28;20041;-61
2023/09/30 00:43:21;;;;;;;35.75;16.17;;;;;;;;;;2065513;28;20042;-61
2023/09/30 00:44:22;;;;;;;36.65;16.45;;;;;;;;;;2073194;28;20042;-61
2023/09/30 00:45:22;;;;;;;37.90;16.90;;;;;;;;;;2074052;28;20046;-61
2023/09/30 00:46:27;;;;;;;40.97;16.92;;;;;;;;;;2074134;28;20057;-61
2023/09/30 00:47:28;;;;;;;35.72;16.27;;;;;;;;;;2072991;28;20516;-61
2023/09/30 00:48:28;;;;;;;36.58;16.38;;;;;;;;;;2072993;28;20046;-62
2023/09/30 00:49:29;;;;;;;38.55;17.85;;;;;;;;;;2073879;28;20037;-61
2023/09/30 00:50:30;;;;;;;37.60;16.77;;;;;;;;;;2073278;28;20050;-61
2023/09/30 00:51:30;;;;;;;36.60;18.00;;;;;;;;;;2073867;28;20037;-61
2023/09/30 00:52:31;;;;;;;36.92;16.75;;;;;;;;;;2073149;28;20077;-61
2023/09/30 00:53:32;;;;;;;35.72;15.85;;;;;;;;;;2065820;28;20034;-61
2023/09/30 00:54:33;;;;;;;38.40;16.33;;;;;;;;;;2074099;28;20026;-61
2023/09/30 00:55:33;;;;;;;35.63;17.50;;;;;;;;;;2073907;28;20485;-61
2023/09/30 00:56:35;;;;;;;35.38;16.63;;;;;;;;;;2073716;28;20037;-61
2023/09/30 00:57:35;;;;;;;34.63;15.95;;;;;;;;;;2065235;28;20046;-61
2023/09/30 00:58:36;;;;;;;36.80;16.33;;;;;;;;;;2057750;28;20161;-61
2023/09/30 00:59:37;;;;;;;38.10;18.45;;;;;;;;;;2073086;28;20050;-61
2023/09/30 01:00:38;;;;;;;35.30;15.80;;;;;;;;;;2074090;28;20058;-61
2023/09/30 01:01:39;;;;;;;38.17;16.70;;;;;;;;;;2074194;28;20033;-61
2023/09/30 01:02:40;;;;;;;35.47;15.95;;;;;;;;;;2073592;28;20037;-61
2023/09/30 01:03:41;;;;;;;34.58;15.18;;;;;;;;;;2065365;28;20038;-61
2023/09/30 01:04:42;;;;;;;42.08;17.13;;;;;;;;;;2073596;28;20037;-61
2023/09/30 01:05:43;;;;;;;39.10;16.98;;;;;;;;;;2072948;28;20038;-61
2023/09/30 01:06:43;;;;;;;35.65;16.00;;;;;;;;;;2073202;28;20042;-61
2023/09/30 01:07:44;;;;;;;39.80;16.20;;;;;;;;;;2065032;28;20049;-61
2023/09/30 01:08:46;;;;;;;37.63;17.17;;;;;;;;;;2073651;28;20037;-61
2023/09/30 01:09:47;;;;;;;37.50;16.40;;;;;;;;;;2073585;28;20501;-62
2023/09/30 01:10:48;;;;;;;35.78;17.20;;;;;;;;;;2073399;28;20041;-62
2023/09/30 01:11:49;;;;;;;37.42;15.55;;;;;;;;;;2073450;28;20129;-61
2023/09/30 01:12:49;;;;;;;38.47;17.08;;;;;;;;;;2074184;28;20037;-61
2023/09/30 01:13:50;;;;;;;39.28;17.27;;;;;;;;;;2073832;28;20045;-61
2023/09/30 01:14:55;;;;;;;38.35;17.38;;;;;;;;;;2073567;28;20042;-61
2023/09/30 01:15:56;;;;;;;34.42;13.95;;;;;;;;;;2072693;28;20263;-62
2023/09/30 01:16:59;;;;;;;36.58;14.98;;;;;;;;;;2072765;28;20045;-62
2023/09/30 01:18:00;;;;;;;38.17;14.63;;;;;;;;;;2073348;28;20045;-61
2023/09/30 01:19:02;;;;;;;35.25;15.70;;;;;;;;;;2065712;28;20038;-61
2023/09/30 01:20:07;;;;;;;38.58;16.00;;;;;;;;;;2073489;28;20049;-61
2023/09/30 01:21:08;;;;;;;35.08;15.13;;;;;;;;;;2074251;28;20058;-61
2023/09/30 01:22:09;;;;;;;36.90;15.07;;;;;;;;;;2074693;28;20038;-63
2023/09/30 01:23:11;;;;;;;38.38;16.90;;;;;;;;;;2073409;28;20563;-61
2023/09/30 01:24:12;;;;;;;38.65;14.98;;;;;;;;;;2066060;28;20421;-61
2023/09/30 01:25:13;;;;;;;36.75;16.30;;;;;;;;;;2065675;28;20042;-62
2023/09/30 01:26:14;;;;;;;34.70;16.10;;;;;;;;;;2072877;28;20077;-61
2023/09/30 01:27:18;;;;;;;36.70;15.32;;;;;;;;;;2073885;28;20045;-61
2023/09/30 01:28:20;;;;;;;36.40;16.65;;;;;;;;;;2073608;28;20053;-62
2023/09/30 01:29:21;;;;;;;36.30;17.05;;;;;;;;;;2072997;28;20520;-63
2023/09/30 01:30:23;;;;;;;38.15;16.42;;;;;;;;;;2074155;28;20034;-62
2023/09/30 01:31:23;;;;;;;34.92;15.90;;;;;;;;;;2073805;28;20049;-62
2023/09/30 01:32:24;;;;;;;34.33;15.43;;;;;;;;;;2074120;28;20038;-61
2023/09/30 01:33:25;;;;;;;38.15;16.95;;;;;;;;;;2074012;28;20045;-61
2023/09/30 01:34:25;;;;;;;34.80;15.38;;;;;;;;;;2074031;28;20195;-61
2023/09/30 01:35:27;;;;;;;37.42;16.10;;;;;;;;;;2073687;28;20041;-62
2023/09/30 01:36:28;;;;;;;41.97;16.65;;;;;;;;;;2074232;28;20033;-61
2023/09/30 01:37:29;;;;;;;37.45;16.77;;;;;;;;;;2074439;28;20041;-62
2023/09/30 01:38:30;;;;;;;39.10;17.75;;;;;;;;;;2072400;28;20429;-62
2023/09/30 01:39:30;;;;;;;38.53;16.75;;;;;;;;;;2065274;28;20076;-61
2023/09/30 01:40:31;;;;;;;36.72;16.05;;;;;;;;;;2064656;28;20054;-62
2023/09/30 01:41:32;;;;;;;34.15;15.80;;;;;;;;;;2073421;28;20037;-61
2023/09/30 01:42:33;;;;;;;35.78;16.75;;;;;;;;;;2074029;28;20046;-61
2023/09/30 01:43:36;;;;;;;40.15;17.73;;;;;;;;;;2074136;28;20034;-61
2023/09/30 01:44:37;;;;;;;35.83;16.38;;;;;;;;;;2072816;28;20477;-61
2023/09/30 01:45:37;;;;;;;35.35;16.42;;;;;;;;;;2073364;28;20053;-61
2023/09/30 01:46:38;;;;;;;37.95;15.57;;;;;;;;;;2072818;28;20077;-61
2023/09/30 01:47:39;;;;;;;38.33;15.63;;;;;;;;;;2073695;28;20045;-61
2023/09/30 01:48:39;;;;;;;37.15;16.13;;;;;;;;;;2073833;28;20033;-61
2023/09/30 01:49:40;;;;;;;36.63;16.83;;;;;;;;;;2073621;28;20038;-61
2023/09/30 01:50:41;;;;;;;38.47;16.67;;;;;;;;;;2073368;28;20398;-61
2023/09/30 01:51:42;;;;;;;35.63;16.35;;;;;;;;;;2074072;28;20045;-61
2023/09/30 01:52:42;;;;;;;40.17;16.63;;;;;;;;;;2073881;28;20030;-61
2023/09/30 01:53:43;;;;;;;36.85;16.38;;;;;;;;;;2074054;28;20038;-60
2023/09/30 01:54:44;;;;;;;36.47;17.55;;;;;;;;;;2072734;28;20042;-61
2023/09/30 01:55:45;;;;;;;34.97;15.48;;;;;;;;;;2073921;28;20034;-61
2023/09/30 01:56:45;;;;;;;39.40;16.83;;;;;;;;;;2073539;28;20061;-61
2023/09/30 01:57:46;;;;;;;36.78;16.27;;;;;;;;;;2065306;28;20121;-61
2023/09/30 01:58:47;;;;;;;33.42;15.25;;;;;;;;;;2072646;28;20048;-61
2023/09/30 01:59:47;;;;;;;35.75;16.67;;;;;;;;;;2073560;28;20041;-61
2023/09/30 02:00:48;;;;;;;38.15;15.10;;;;;;;;;;2064881;28;20084;-61
2023/09/30 02:01:49;;;;;;;35.45;15.52;;;;;;;;;;2073213;28;20041;-60
2023/09/30 02:02:51;;;;;;;38.95;16.35;;;;;;;;;;2074132;28;20053;-61
2023/09/30 02:03:52;;;;;;;36.83;15.40;;;;;;;;;;2074152;28;20060;-62
2023/09/30 02:04:53;;;;;;;33.00;15.18;;;;;;;;;;2073665;28;20425;-61
2023/09/30 02:05:54;;;;;;;34.20;14.65;;;;;;;;;;2074012;28;20033;-61
2023/09/30 02:06:54;;;;;;;38.08;15.85;;;;;;;;;;2073984;28;20378;-60
2023/09/30 02:07:55;;;;;;;32.95;15.05;;;;;;;;;;2073913;28;20034;-61
2023/09/30 02:08:56;;;;;;;36.15;15.73;;;;;;;;;;2073553;28;20038;-62
2023/09/30 02:09:57;;;;;;;31.13;14.30;;;;;;;;;;2073587;28;20046;-61
2023/09/30 02:10:57;;;;;;;34.78;15.20;;;;;;;;;;2073964;28;20037;-61
2023/09/30 02:11:58;;;;;;;36.47;15.82;;;;;;;;;;2072734;28;20041;-61
2023/09/30 02:12:59;;;;;;;34.78;15.10;;;;;;;;;;2072929;28;20068;-60
2023/09/30 02:14:01;;;;;;;34.65;16.50;;;;;;;;;;2073096;28;20088;-61
2023/09/30 02:15:03;;;;;;;36.95;15.80;;;;;;;;;;2064248;28;20046;-61
2023/09/30 02:16:03;;;;;;;33.47;15.10;;;;;;;;;;2073374;28;20049;-62
2023/09/30 02:17:04;;;;;;;32.65;15.40;;;;;;;;;;2072885;28;20053;-62
2023/09/30 02:18:06;;;;;;;35.38;15.70;;;;;;;;;;2073707;28;20053;-61
2023/09/30 02:19:08;;;;;;;35.67;15.20;;;;;;;;;;2072669;28;20060;-61
2023/09/30 02:20:12;;;;;;;34.17;15.43;;;;;;;;;;2073095;28;20049;-62
2023/09/30 02:21:13;;;;;;;37.05;16.20;;;;;;;;;;2073204;28;20410;-61
2023/09/30 02:22:15;;;;;;;32.38;15.05;;;;;;;;;;2072367;28;20037;-61
2023/09/30 02:23:17;;;;;;;35.58;15.52;;;;;;;;;;2073225;28;20049;-61
2023/09/30 02:24:17;;;;;;;38.67;15.65;;;;;;;;;;2072868;28;20050;-62
2023/09/30 02:25:18;;;;;;;34.67;15.52;;;;;;;;;;2073327;28;20042;-62
2023/09/30 02:26:19;;;;;;;35.40;15.70;;;;;;;;;;2073057;28;20048;-62
2023/09/30 02:27:19;;;;;;;35.55;15.10;;;;;;;;;;2072635;28;20050;-62
2023/09/30 02:28:20;;;;;;;37.08;16.10;;;;;;;;;;2073172;28;20069;-62
2023/09/30 02:29:21;;;;;;;34.33;15.05;;;;;;;;;;2073153;28;20046;-62
2023/09/30 02:30:23;;;;;;;35.03;16.27;;;;;;;;;;2073208;28;20045;-62
2023/09/30 02:31:24;;;;;;;37.22;15.95;;;;;;;;;;2073880;28;20064;-62
2023/09/30 02:32:25;;;;;;;35.45;15.35;;;;;;;;;;2073011;28;20049;-61
2023/09/30 02:33:26;;;;;;;34.05;15.02;;;;;;;;;;2072666;28;20050;-62
2023/09/30 02:34:26;;;;;;;37.83;15.45;;;;;;;;;;2073166;28;20072;-62
2023/09/30 02:35:27;;;;;;;37.55;15.95;;;;;;;;;;2073237;28;20064;-62
2023/09/30 02:36:28;;;;;;;37.75;15.93;;;;;;;;;;2073883;28;20037;-61
2023/09/30 02:37:29;;;;;;;33.90;15.70;;;;;;;;;;2072527;28;20054;-62
2023/09/30 02:38:29;;;;;;;32.17;14.82;;;;;;;;;;2073341;28;20034;-62
2023/09/30 02:39:30;;;;;;;30.10;13.98;;;;;;;;;;2073347;28;20054;-62
2023/09/30 02:40:31;;;;;;;37.72;15.20;;;;;;;;;;2073805;28;20442;-62
2023/09/30 02:41:31;;;;;;;32.72;15.32;;;;;;;;;;2073403;28;20486;-62
2023/09/30 02:42:32;;;;;;;33.90;15.07;;;;;;;;;;2073110;28;20081;-62
2023/09/30 02:43:33;;;;;;;33.45;14.75;;;;;;;;;;2073062;28;20046;-62
2023/09/30 02:44:34;;;;;;;36.58;15.57;;;;;;;;;;2073215;28;20038;-62
2023/09/30 02:45:34;;;;;;;36.78;15.52;;;;;;;;;;2073696;28;20045;-61
2023/09/30 02:46:35;;;;;;;33.80;14.38;;;;;;;;;;2073786;28;20034;-61
2023/09/30 02:47:36;;;;;;;32.22;13.98;;;;;;;;;;2073889;28;20079;-61
2023/09/30 02:48:37;;;;;;;35.40;15.30;;;;;;;;;;2073453;28;20057;-61
2023/09/30 02:49:38;;;;;;;34.25;15.25;;;;;;;;;;2073644;28;20037;-61
2023/09/30 02:50:44;;;;;;;32.67;14.63;;;;;;;;;;2073066;28;20041;-61
2023/09/30 02:51:44;;;;;;;35.53;15.45;;;;;;;;;;2073291;28;20042;-61
2023/09/30 02:52:45;;;;;;;32.45;14.65;;;;;;;;;;2072134;28;20444;-61
2023/09/30 02:53:48;;;;;;;30.30;13.95;;;;;;;;;;2064616;28;20046;-61
2023/09/30 02:54:49;;;;;;;34.05;14.38;;;;;;;;;;2072578;28;20381;-61
2023/09/30 02:55:52;;;;;;;31.58;13.45;;;;;;;;;;2072251;28;20088;-62
2023/09/30 02:56:54;;;;;;;31.13;13.40;;;;;;;;;;2072507;28;20053;-61
2023/09/30 02:57:55;;;;;;;32.40;14.75;;;;;;;;;;2073153;28;20516;-61
2023/09/30 02:58:56;;;;;;;30.13;14.05;;;;;;;;;;2073005;28;20455;-61
2023/09/30 02:59:59;;;;;;;29.67;13.80;;;;;;;;;;2073987;28;20204;-61
2023/09/30 03:00:59;;;;;;;30.92;13.88;;;;;;;;;;2072994;28;20054;-61
2023/09/30 03:02:00;;;;;;;36.83;15.45;;;;;;;;;;2072578;28;20042;-61
2023/09/30 03:03:01;;;;;;;30.45;13.88;;;;;;;;;;2073736;28;20492;-61
2023/09/30 03:04:03;;;;;;;30.40;13.35;;;;;;;;;;2073102;28;20053;-61
2023/09/30 03:05:04;;;;;;;36.45;15.15;;;;;;;;;;2073355;28;20041;-61
2023/09/30 03:06:05;;;;;;;29.42;13.95;;;;;;;;;;2074033;28;20060;-62
2023/09/30 03:07:07;;;;;;;32.47;13.90;;;;;;;;;;2066339;28;20049;-61
2023/09/30 03:08:08;;;;;;;32.00;13.40;;;;;;;;;;2074444;28;20054;-61
2023/09/30 03:09:09;;;;;;;29.83;14.05;;;;;;;;;;2074989;28;20064;-61
2023/09/30 03:10:10;;;;;;;31.85;13.90;;;;;;;;;;2075278;28;20516;-61
2023/09/30 03:11:12;;;;;;;27.77;12.23;;;;;;;;;;2075523;28;20034;-61
2023/09/30 03:12:13;;;;;;;31.58;13.50;;;;;;;;;;2074487;28;20045;-61
2023/09/30 03:13:14;;;;;;;31.33;13.02;;;;;;;;;;2075336;28;20450;-61
2023/09/30 03:14:15;;;;;;;29.77;12.63;;;;;;;;;;2075215;28;20038;-61
2023/09/30 03:15:16;;;;;;;27.80;12.48;;;;;;;;;;2074870;28;20133;-61
2023/09/30 03:16:16;;;;;;;29.35;12.95;;;;;;;;;;2075448;28;20126;-61
2023/09/30 03:17:19;;;;;;;32.90;12.63;;;;;;;;;;2075275;28;20049;-61
2023/09/30 03:18:26;;;;;;;27.48;12.07;;;;;;;;;;2074757;28;20037;-61
2023/09/30 03:19:26;;;;;;;33.15;14.02;;;;;;;;;;2075370;28;20048;-60
2023/09/30 03:20:27;;;;;;;30.52;11.77;;;;;;;;;;2074955;28;20052;-61
2023/09/30 03:21:28;;;;;;;29.95;11.80;;;;;;;;;;2075169;28;20058;-61
2023/09/30 03:22:28;;;;;;;26.17;11.77;;;;;;;;;;2074983;28;20518;-61
2023/09/30 03:23:30;;;;;;;30.63;12.55;;;;;;;;;;2074796;28;20046;-61
2023/09/30 03:24:31;;;;;;;30.10;12.43;;;;;;;;;;2075100;28;20030;-61
2023/09/30 03:25:32;;;;;;;31.20;12.93;;;;;;;;;;2074669;28;20078;-60
2023/09/30 03:26:33;;;;;;;28.38;12.55;;;;;;;;;;2074820;28;20077;-61
2023/09/30 03:27:34;;;;;;;28.63;13.43;;;;;;;;;;2074682;28;20121;-61
2023/09/30 03:28:34;;;;;;;26.80;11.65;;;;;;;;;;2075130;28;20026;-61
2023/09/30 03:29:36;;;;;;;28.13;11.57;;;;;;;;;;2075083;28;20061;-61
2023/09/30 03:30:36;;;;;;;28.92;12.80;;;;;;;;;;2075240;28;20482;-61
2023/09/30 03:31:37;;;;;;;27.77;12.05;;;;;;;;;;2074820;28;20060;-61
2023/09/30 03:32:38;;;;;;;27.30;11.45;;;;;;;;;;2074567;28;20045;-61
2023/09/30 03:33:39;;;;;;;25.35;11.70;;;;;;;;;;2075124;28;20037;-61
2023/09/30 03:34:44;;;;;;;24.58;11.32;;;;;;;;;;2075172;28;20351;-61
2023/09/30 03:35:45;;;;;;;27.30;12.23;;;;;;;;;;2074872;28;20049;-61
2023/09/30 03:36:46;;;;;;;28.67;12.98;;;;;;;;;;2075080;28;20034;-61
2023/09/30 03:37:47;;;;;;;26.33;12.15;;;;;;;;;;2074765;28;20073;-61
2023/09/30 03:38:47;;;;;;;27.33;12.10;;;;;;;;;;2074497;28;20134;-61
2023/09/30 03:39:49;;;;;;;26.73;11.70;;;;;;;;;;2075159;28;20030;-61
2023/09/30 03:40:50;;;;;;;27.40;12.75;;;;;;;;;;2074758;28;20045;-61
2023/09/30 03:41:52;;;;;;;26.05;12.68;;;;;;;;;;2074546;28;20052;-61
2023/09/30 03:42:53;;;;;;;26.63;12.32;;;;;;;;;;2074899;28;20045;-61
2023/09/30 03:43:53;;;;;;;26.80;12.18;;;;;;;;;;2074962;28;20508;-61
2023/09/30 03:44:54;;;;;;;25.95;11.95;;;;;;;;;;2074030;28;20049;-62
2023/09/30 03:45:57;;;;;;;26.00;11.02;;;;;;;;;;2077081;28;20426;-61
2023/09/30 03:46:59;;;;;;;29.60;12.88;;;;;;;;;;2075049;28;20191;-61
2023/09/30 03:48:01;;;;;;;27.88;11.80;;;;;;;;;;2074891;28;20458;-61
2023/09/30 03:49:02;;;;;;;25.02;11.30;;;;;;;;;;2074979;28;20034;-61
2023/09/30 03:50:04;;;;;;;25.40;11.88;;;;;;;;;;2074711;28;20046;-61
2023/09/30 03:51:14;;;;;;;27.95;12.88;;;;;;;;;;2074775;28;20050;-61
2023/09/30 03:52:15;;;;;;;26.90;11.13;;;;;;;;;;2074536;28;20054;-61
2023/09/30 03:53:15;;;;;;;26.52;11.77;;;;;;;;;;2074918;28;20073;-61
2023/09/30 03:54:17;;;;;;;27.48;11.70;;;;;;;;;;2074582;28;20056;-61
2023/09/30 03:55:20;;;;;;;28.67;12.52;;;;;;;;;;2074730;28;20052;-61
2023/09/30 03:56:22;;;;;;;28.48;12.30;;;;;;;;;;2074395;28;20050;-61
2023/09/30 03:57:23;;;;;;;25.38;11.70;;;;;;;;;;2074584;28;20053;-61
2023/09/30 03:58:24;;;;;;;27.15;12.18;;;;;;;;;;2074654;28;20041;-61
2023/09/30 03:59:26;;;;;;;27.42;11.30;;;;;;;;;;2074889;28;20389;-61
2023/09/30 04:00:28;;;;;;;27.30;12.40;;;;;;;;;;2074818;28;20060;-61
2023/09/30 04:01:29;;;;;;;27.52;10.95;;;;;;;;;;2075005;28;20042;-61
2023/09/30 04:02:30;;;;;;;28.45;11.48;;;;;;;;;;2074326;28;20046;-61
2023/09/30 04:03:33;;;;;;;28.38;12.20;;;;;;;;;;2074909;28;20508;-61
2023/09/30 04:04:34;;;;;;;30.70;12.32;;;;;;;;;;2074676;28;20044;-60
2023/09/30 04:05:36;;;;;;;29.08;11.88;;;;;;;;;;2074676;28;20045;-61
2023/09/30 04:06:40;;;;;;;25.15;11.65;;;;;;;;;;2073971;28;20060;-65
2023/09/30 04:07:42;;;;;;;24.90;11.93;;;;;;;;;;2073854;28;20049;-61
2023/09/30 04:08:43;;;;;;;24.02;11.43;;;;;;;;;;2074417;28;20053;-61
2023/09/30 04:09:44;;;;;;;26.05;11.45;;;;;;;;;;2074506;28;20045;-61
2023/09/30 04:10:45;;;;;;;26.00;10.55;;;;;;;;;;2074423;28;20042;-62
2023/09/30 04:11:46;;;;;;;23.52;10.57;;;;;;;;;;2074654;28;20394;-60
2023/09/30 04:12:47;;;;;;;24.55;10.55;;;;;;;;;;2074652;28;20026;-61
2023/09/30 04:13:49;;;;;;;25.20;11.75;;;;;;;;;;2074549;28;20038;-61
2023/09/30 04:14:50;;;;;;;26.70;11.40;;;;;;;;;;2074627;28;20034;-61
2023/09/30 04:15:51;;;;;;;25.60;10.75;;;;;;;;;;2074663;28;20046;-61
2023/09/30 04:16:54;;;;;;;25.92;11.73;;;;;;;;;;2074636;28;20367;-61
2023/09/30 04:17:54;;;;;;;29.52;12.23;;;;;;;;;;2073989;28;20045;-61
2023/09/30 04:18:55;;;;;;;24.92;10.88;;;;;;;;;;2074707;28;20069;-61
2023/09/30 04:19:56;;;;;;;26.27;10.90;;;;;;;;;;2074809;28;20533;-61
2023/09/30 04:20:57;;;;;;;24.83;11.00;;;;;;;;;;2074217;28;20406;-61
2023/09/30 04:21:57;;;;;;;28.00;11.95;;;;;;;;;;2074565;28;20132;-61
2023/09/30 04:22:58;;;;;;;25.92;10.27;;;;;;;;;;2074522;28;20038;-61
2023/09/30 04:23:59;;;;;;;22.10;10.68;;;;;;;;;;2074250;28;20054;-61
2023/09/30 04:25:00;;;;;;;26.35;10.85;;;;;;;;;;2074091;28;20045;-60
2023/09/30 04:26:00;;;;;;;25.98;11.63;;;;;;;;;;2074786;28;20038;-61
2023/09/30 04:27:04;;;;;;;22.58;10.40;;;;;;;;;;2074991;28;20038;-61
2023/09/30 04:28:05;;;;;;;24.23;11.02;;;;;;;;;;2073886;28;20049;-62
2023/09/30 04:29:06;;;;;;;27.48;11.60;;;;;;;;;;2073925;28;20160;-61
2023/09/30 04:30:08;;;;;;;27.20;11.07;;;;;;;;;;2074663;28;20038;-61
2023/09/30 04:31:09;;;;;;;24.08;11.60;;;;;;;;;;2074208;28;20042;-61
2023/09/30 04:32:10;;;;;;;26.88;10.68;;;;;;;;;;2074196;28;20042;-61
2023/09/30 04:33:12;;;;;;;24.52;10.38;;;;;;;;;;2074208;28;20076;-61
2023/09/30 04:34:13;;;;;;;26.17;11.43;;;;;;;;;;2074623;28;20048;-61
2023/09/30 04:35:14;;;;;;;23.83;10.27;;;;;;;;;;2073962;28;20077;-61
2023/09/30 04:36:15;;;;;;;25.23;11.10;;;;;;;;;;2074638;28;20030;-61
2023/09/30 04:37:16;;;;;;;25.90;9.80;;;;;;;;;;2074434;28;20081;-61
2023/09/30 04:38:17;;;;;;;26.75;11.40;;;;;;;;;;2074583;28;20030;-61
2023/09/30 04:39:18;;;;;;;25.05;11.15;;;;;;;;;;2074166;28;20057;-61
2023/09/30 04:40:22;;;;;;;28.00;11.77;;;;;;;;;;2074009;28;20046;-61
2023/09/30 04:41:25;;;;;;;26.90;10.80;;;;;;;;;;2074377;28;20042;-61
2023/09/30 04:42:26;;;;;;;26.00;10.77;;;;;;;;;;2074490;28;20053;-61
2023/09/30 04:43:29;;;;;;;26.17;11.10;;;;;;;;;;2074201;28;20482;-61
2023/09/30 04:44:30;;;;;;;22.48;9.52;;;;;;;;;;2074601;28;20493;-61
2023/09/30 04:45:31;;;;;;;22.30;9.77;;;;;;;;;;2074493;28;20083;-61
2023/09/30 04:46:32;;;;;;;25.15;11.02;;;;;;;;;;2074480;28;20111;-61
2023/09/30 04:47:33;;;;;;;23.48;9.88;;;;;;;;;;2074485;28;20417;-61
2023/09/30 04:48:34;;;;;;;24.60;10.52;;;;;;;;;;2074603;28;20117;-61
2023/09/30 04:49:35;;;;;;;26.45;10.68;;;;;;;;;;2074626;28;20137;-61
2023/09/30 04:50:38;;;;;;;25.48;10.38;;;;;;;;;;2074471;28;20041;-61
2023/09/30 04:51:39;;;;;;;28.63;12.05;;;;;;;;;;2073828;28;20045;-61
2023/09/30 04:52:40;;;;;;;22.08;10.82;;;;;;;;;;2074555;28;20037;-61
2023/09/30 04:53:41;;;;;;;25.73;10.52;;;;;;;;;;2074273;28;20050;-61
2023/09/30 04:54:41;;;;;;;25.38;10.18;;;;;;;;;;2074246;28;20041;-61
2023/09/30 04:55:42;;;;;;;22.35;9.85;;;;;;;;;;2074343;28;20077;-61
2023/09/30 04:56:43;;;;;;;22.65;9.70;;;;;;;;;;2074439;28;20033;-61
2023/09/30 04:57:44;;;;;;;23.40;10.02;;;;;;;;;;2074116;28;20500;-61
2023/09/30 04:58:46;;;;;;;25.08;10.80;;;;;;;;;;2074585;28;20033;-61
2023/09/30 04:59:47;;;;;;;26.90;10.48;;;;;;;;;;2074246;28;20037;-61
2023/09/30 05:00:48;;;;;;;23.23;9.82;;;;;;;;;;2074035;28;20393;-61
2023/09/30 05:01:48;;;;;;;25.73;11.18;;;;;;;;;;2074527;28;20496;-61
2023/09/30 05:02:49;;;;;;;23.73;10.38;;;;;;;;;;2074445;28;20041;-61
2023/09/30 05:03:50;;;;;;;24.42;10.63;;;;;;;;;;2074224;28;20033;-61
2023/09/30 05:04:52;;;;;;;23.90;10.75;;;;;;;;;;2074038;28;20041;-61
2023/09/30 05:05:56;;;;;;;23.60;10.73;;;;;;;;;;2073929;28;20042;-61
2023/09/30 05:06:57;;;;;;;27.05;11.10;;;;;;;;;;2073705;28;20053;-61
2023/09/30 05:07:58;;;;;;;25.05;11.00;;;;;;;;;;2073901;28;20038;-61
2023/09/30 05:08:59;;;;;;;22.65;10.18;;;;;;;;;;2074453;28;20046;-60
2023/09/30 05:10:00;;;;;;;23.63;9.95;;;;;;;;;;2074380;28;20049;-61
2023/09/30 05:11:01;;;;;;;23.02;10.43;;;;;;;;;;2074306;28;20041;-61
2023/09/30 05:12:04;;;;;;;23.05;9.52;;;;;;;;;;2073954;28;20068;-61
2023/09/30 05:13:04;;;;;;;23.67;9.68;;;;;;;;;;2074147;28;20038;-61
2023/09/30 05:14:05;;;;;;;25.13;10.55;;;;;;;;;;2074701;28;20041;-61
2023/09/30 05:15:06;;;;;;;23.02;9.93;;;;;;;;;;2073773;28;20053;-61
2023/09/30 05:16:07;;;;;;;25.52;10.55;;;;;;;;;;2074286;28;20045;-60
2023/09/30 05:17:08;;;;;;;23.48;10.23;;;;;;;;;;2074182;28;20074;-61
2023/09/30 05:18:09;;;;;;;21.55;10.63;;;;;;;;;;2074308;28;20072;-61
2023/09/30 05:19:10;;;;;;;23.10;10.80;;;;;;;;;;2074189;28;20048;-60
2023/09/30 05:20:12;;;;;;;25.00;11.23;;;;;;;;;;2073780;28;20068;-61
2023/09/30 05:21:12;;;;;;;23.20;10.25;;;;;;;;;;2074489;28;20041;-61
2023/09/30 05:22:13;;;;;;;26.83;11.02;;;;;;;;;;2074184;28;20045;-61
2023/09/30 05:23:14;;;;;;;21.75;9.60;;;;;;;;;;2073878;28;20046;-61
2023/09/30 05:24:18;;;;;;;25.65;11.00;;;;;;;;;;2074360;28;20361;-61
2023/09/30 05:25:19;;;;;;;24.17;10.52;;;;;;;;;;2074049;28;20045;-61
2023/09/30 05:26:20;;;;;;;24.10;10.27;;;;;;;;;;2073760;28;20115;-61
2023/09/30 05:27:21;;;;;;;26.80;11.00;;;;;;;;;;2073838;28;20045;-61
2023/09/30 05:28:21;;;;;;;23.92;10.93;;;;;;;;;;2073625;28;20077;-61
2023/09/30 05:29:22;;;;;;;25.25;10.27;;;;;;;;;;2073400;28;20033;-61
2023/09/30 05:30:23;;;;;;;22.25;9.38;;;;;;;;;;2074339;28;20092;-61
2023/09/30 05:31:24;;;;;;;24.50;10.38;;;;;;;;;;2074350;28;20370;-61
2023/09/30 05:32:26;;;;;;;29.23;11.25;;;;;;;;;;2074541;28;20488;-61
2023/09/30 05:33:28;;;;;;;23.33;10.48;;;;;;;;;;2074654;28;20037;-61
2023/09/30 05:34:28;;;;;;;21.65;10.52;;;;;;;;;;2074325;28;20474;-65
2023/09/30 05:35:31;;;;;;;27.15;11.80;;;;;;;;;;2073878;28;20053;-61
2023/09/30 05:36:32;;;;;;;29.00;10.45;;;;;;;;;;2074482;28;20037;-61
2023/09/30 05:37:33;;;;;;;24.73;11.13;;;;;;;;;;2074271;28;20057;-60
2023/09/30 05:38:34;;;;;;;26.00;10.57;;;;;;;;;;2073729;28;20383;-61
2023/09/30 05:39:35;;;;;;;24.33;10.65;;;;;;;;;;2074230;28;20049;-61
2023/09/30 05:40:36;;;;;;;21.45;10.15;;;;;;;;;;2074006;28;20045;-61
2023/09/30 05:41:37;;;;;;;26.90;10.77;;;;;;;;;;2074048;28;20042;-61
2023/09/30 05:42:38;;;;;;;25.65;11.45;;;;;;;;;;2074247;28;20045;-61
2023/09/30 05:43:38;;;;;;;26.90;11.05;;;;;;;;;;2073979;28;20084;-61
2023/09/30 05:44:39;;;;;;;24.65;10.20;;;;;;;;;;2073966;28;20037;-61
2023/09/30 05:45:48;;;;;;;23.33;10.75;;;;;;;;;;2073424;28;20053;-61
2023/09/30 05:46:50;;;;;;;;;;;;;;;;;;2074407;28;20430;-61
2023/09/30 05:47:54;;;;;;;25.92;11.85;;;;;;;;;;2073953;28;20384;-61
2023/09/30 05:48:55;;;;;;;23.92;10.73;;;;;;;;;;2074049;28;20045;-61
2023/09/30 05:49:56;;;;;;;26.60;11.02;;;;;;;;;;2073555;28;20050;-61
2023/09/30 05:50:57;;;;;;;21.77;10.13;;;;;;;;;;2073433;28;20379;-61
2023/09/30 05:51:58;;;;;;;24.55;10.43;;;;;;;;;;2073478;28;20498;-61
2023/09/30 05:52:58;;;;;;;23.67;10.18;;;;;;;;;;2073883;28;20041;-61
2023/09/30 05:53:59;;;;;;;25.13;10.77;;;;;;;;;;2074012;28;20034;-61
2023/09/30 05:55:01;;;;;;;24.38;10.50;;;;;;;;;;2073265;28;20413;-61
2023/09/30 05:56:02;;;;;;;22.00;9.77;;;;;;;;;;2073770;28;20049;-61
2023/09/30 05:57:03;;;;;;;23.45;10.35;;;;;;;;;;2074105;28;20428;-61